createdAt,value
2019-03-06T00:00:25.157Z,14.43
2019-03-06T00:02:53.642Z,12.75
2019-03-06T00:05:22.135Z,11.40
2019-03-06T00:07:50.621Z,23.70
2019-03-06T00:10:27.672Z,14.40
2019-03-06T00:12:56.161Z,21.82
2019-03-06T00:15:24.659Z,27.48
2019-03-06T00:17:53.147Z,13.40
2019-03-06T00:20:21.823Z,24.85
2019-03-06T00:22:50.311Z,19.50
2019-03-06T00:25:18.808Z,11.57
2019-03-06T00:27:47.296Z,11.60
2019-03-06T00:30:17.086Z,12.82
2019-03-06T00:32:45.763Z,16.32
2019-03-06T00:35:16.334Z,19.45
2019-03-06T00:37:44.817Z,24.37
2019-03-06T00:40:14.885Z,24.50
2019-03-06T00:42:44.944Z,23.60
2019-03-06T00:45:14.831Z,27.82
2019-03-06T00:47:43.321Z,17.92
2019-03-06T00:50:11.814Z,17.02
2019-03-06T00:52:40.338Z,19.25
2019-03-06T00:55:10.720Z,17.73
2019-03-06T00:57:39.206Z,17.75
2019-03-06T01:00:14.005Z,19.98
2019-03-06T01:02:42.485Z,23.10
2019-03-06T01:05:11.378Z,21.17
2019-03-06T01:07:40.142Z,27.42
2019-03-06T01:10:11.234Z,28.47
2019-03-06T01:12:39.733Z,28.70
2019-03-06T01:15:10.324Z,12.68
2019-03-06T01:17:38.818Z,16.48
2019-03-06T01:20:11.997Z,21.12
2019-03-06T01:22:40.497Z,45.43
2019-03-06T01:25:11.534Z,42.93
2019-03-06T01:27:40.019Z,25.72
2019-03-06T01:30:11.629Z,21.48
2019-03-06T01:32:40.313Z,36.33
2019-03-06T01:35:13.336Z,15.43
2019-03-06T01:37:58.824Z,59.05
2019-03-06T01:40:37.744Z,21.90
2019-03-06T01:43:19.721Z,15.60
2019-03-06T01:45:48.210Z,12.40
2019-03-06T01:48:16.860Z,17.17
2019-03-06T01:50:45.349Z,14.20
2019-03-06T01:53:13.834Z,14.03
2019-03-06T01:55:42.322Z,18.82
2019-03-06T01:58:10.805Z,18.95
2019-03-06T02:00:39.578Z,27.52
2019-03-06T02:03:08.066Z,19.37
2019-03-06T02:05:36.612Z,17.55
2019-03-06T02:08:05.096Z,23.25
2019-03-06T02:10:33.582Z,20.27
2019-03-06T02:13:02.364Z,17.12
2019-03-06T02:15:30.855Z,15.08
2019-03-06T02:17:59.344Z,19.55
2019-03-06T02:20:27.837Z,15.88
2019-03-06T02:22:56.326Z,31.42
2019-03-06T02:25:24.815Z,13.18
2019-03-06T02:27:53.302Z,20.85
2019-03-06T02:30:25.768Z,16.67
2019-03-06T02:32:54.247Z,12.18
2019-03-06T02:35:22.745Z,50.90
2019-03-06T02:37:51.229Z,22.48
2019-03-06T02:40:19.702Z,20.92
2019-03-06T02:42:48.202Z,13.83
2019-03-06T02:45:20.821Z,14.28
2019-03-06T02:47:49.308Z,11.60
2019-03-06T02:50:18.504Z,18.48
2019-03-06T02:52:46.998Z,12.10
2019-03-06T02:55:18.577Z,10.10
2019-03-06T02:57:51.636Z,11.53
2019-03-06T03:00:34.532Z,11.70
2019-03-06T03:03:08.026Z,15.05
2019-03-06T03:05:56.351Z,17.30
2019-03-06T03:08:24.875Z,12.93
2019-03-06T03:10:53.360Z,13.80
2019-03-06T03:13:21.873Z,13.15
2019-03-06T03:15:50.440Z,16.25
2019-03-06T03:18:18.942Z,20.35
2019-03-06T03:20:47.442Z,14.60
2019-03-06T03:23:15.925Z,15.03
2019-03-06T03:25:44.451Z,15.50
2019-03-06T03:28:12.939Z,14.98
2019-03-06T03:30:41.425Z,17.65
2019-03-06T03:33:09.914Z,16.32
2019-03-06T03:35:38.589Z,15.78
2019-03-06T03:38:07.085Z,15.38
2019-03-06T03:40:35.575Z,13.95
2019-03-06T03:43:04.075Z,12.25
2019-03-06T03:45:32.568Z,69.10
2019-03-06T03:48:01.059Z,59.35
2019-03-06T03:50:29.541Z,49.08
2019-03-06T03:52:58.100Z,24.82
2019-03-06T03:55:26.594Z,18.65
2019-03-06T03:57:55.087Z,18.20
2019-03-06T04:00:23.879Z,18.32
2019-03-06T04:02:52.649Z,24.85
2019-03-06T04:05:21.170Z,22.67
2019-03-06T04:07:49.650Z,22.75
2019-03-06T04:10:18.229Z,20.68
2019-03-06T04:12:46.703Z,17.67
2019-03-06T04:15:17.145Z,17.50
2019-03-06T04:17:45.650Z,19.80
2019-03-06T04:20:17.436Z,13.62
2019-03-06T04:22:45.921Z,14.20
2019-03-06T04:25:14.415Z,15.32
2019-03-06T04:27:42.900Z,14.18
2019-03-06T04:30:13.660Z,14.33
2019-03-06T04:32:42.150Z,12.60
2019-03-06T04:35:10.652Z,14.35
2019-03-06T04:37:39.131Z,11.85
2019-03-06T04:40:12.672Z,14.28
2019-03-06T04:42:41.160Z,20.92
2019-03-06T04:45:11.267Z,21.35
2019-03-06T04:47:39.738Z,20.92
2019-03-06T04:50:10.530Z,15.90
2019-03-06T04:52:39.019Z,21.85
2019-03-06T04:55:08.608Z,20.32
2019-03-06T04:57:37.149Z,21.95
2019-03-06T05:00:08.758Z,38.10
2019-03-06T05:02:37.245Z,35.92
2019-03-06T05:05:06.018Z,25.97
2019-03-06T05:07:34.497Z,20.90
2019-03-06T05:10:02.989Z,22.87
2019-03-06T05:12:31.473Z,21.35
2019-03-06T05:14:59.971Z,60.20
2019-03-06T05:17:35.744Z,27.85
2019-03-06T05:20:05.539Z,15.48
2019-03-06T05:22:34.028Z,19.10
2019-03-06T05:25:02.545Z,41.18
2019-03-06T05:27:31.032Z,29.05
2019-03-06T05:29:59.893Z,22.87
2019-03-06T05:32:29.889Z,58.08
2019-03-06T05:35:03.681Z,33.33
2019-03-06T05:37:56.616Z,17.65
2019-03-06T05:40:25.102Z,23.00
2019-03-06T05:42:53.643Z,24.30
2019-03-06T05:45:22.148Z,25.17
2019-03-06T05:47:50.636Z,63.55
2019-03-06T05:50:20.362Z,20.40
2019-03-06T05:52:48.967Z,29.87
2019-03-06T05:55:17.466Z,21.00
2019-03-06T05:57:45.957Z,20.30
2019-03-06T06:00:16.945Z,17.70
2019-03-06T06:02:45.438Z,23.80
2019-03-06T06:05:14.338Z,17.45
2019-03-06T06:07:42.828Z,26.97
2019-03-06T06:10:15.410Z,17.73
2019-03-06T06:12:43.902Z,20.20
2019-03-06T06:15:15.730Z,39.23
2019-03-06T06:17:44.221Z,20.17
2019-03-06T06:20:13.812Z,18.37
2019-03-06T06:23:02.257Z,18.10
2019-03-06T06:25:32.316Z,14.58
2019-03-06T06:28:00.794Z,15.28
2019-03-06T06:30:29.277Z,15.50
2019-03-06T06:32:57.774Z,15.58
2019-03-06T06:35:26.589Z,19.73
2019-03-06T06:37:55.096Z,19.02
2019-03-06T06:40:23.582Z,31.70
2019-03-06T06:42:52.084Z,20.45
2019-03-06T06:45:20.671Z,25.25
2019-03-06T06:48:16.136Z,16.23
2019-03-06T06:51:01.739Z,16.00
2019-03-06T06:53:35.401Z,16.00
2019-03-06T06:56:25.283Z,18.65
2019-03-06T06:59:02.740Z,19.87
2019-03-06T07:02:10.222Z,12.55
2019-03-06T07:04:59.576Z,14.90
2019-03-06T07:07:29.634Z,26.23
2019-03-06T07:10:16.101Z,25.25
2019-03-06T07:12:46.158Z,16.67
2019-03-06T07:15:25.242Z,31.77
2019-03-06T07:17:55.310Z,30.05
2019-03-06T07:20:25.650Z,21.00
2019-03-06T07:23:12.294Z,18.90
2019-03-06T07:25:42.366Z,24.57
2019-03-06T07:28:12.434Z,19.70
2019-03-06T07:30:58.805Z,21.60
2019-03-06T07:33:46.932Z,19.90
2019-03-06T07:36:33.157Z,16.95
2019-03-06T07:39:01.871Z,17.62
2019-03-06T07:41:31.942Z,16.95
2019-03-06T07:44:08.254Z,18.02
2019-03-06T07:46:41.022Z,16.37
2019-03-06T07:49:11.088Z,15.95
2019-03-06T07:51:57.211Z,22.37
2019-03-06T07:54:29.949Z,27.90
2019-03-06T07:57:08.926Z,33.58
2019-03-06T07:59:37.416Z,23.77
2019-03-06T08:02:09.022Z,24.65
2019-03-06T08:04:37.516Z,20.60
2019-03-06T08:07:13.803Z,34.08
2019-03-06T08:09:42.299Z,20.20
2019-03-06T08:12:21.519Z,22.82
2019-03-06T08:15:00.875Z,20.85
2019-03-06T08:17:33.650Z,29.42
2019-03-06T08:20:19.054Z,21.00
2019-03-06T08:23:05.496Z,29.25
2019-03-06T08:25:41.417Z,31.42
2019-03-06T08:28:09.907Z,23.02
2019-03-06T08:30:40.933Z,22.98
2019-03-06T08:33:17.947Z,25.08
2019-03-06T08:35:39.646Z,21.17
2019-03-06T08:38:08.125Z,26.95
2019-03-06T08:40:36.632Z,20.90
2019-03-06T08:43:05.105Z,21.75
2019-03-06T08:45:53.220Z,20.52
2019-03-06T08:48:26.043Z,19.20
2019-03-06T08:50:58.831Z,18.27
2019-03-06T08:53:28.940Z,19.82
2019-03-06T08:55:59.270Z,20.97
2019-03-06T08:58:44.780Z,18.20
2019-03-06T09:01:17.959Z,20.10
2019-03-06T09:03:53.729Z,21.48
2019-03-06T09:06:26.463Z,18.48
2019-03-06T09:09:02.022Z,16.87
2019-03-06T09:11:43.214Z,15.88
2019-03-06T09:14:22.197Z,18.73
2019-03-06T09:16:58.320Z,19.00
2019-03-06T09:19:44.545Z,20.95
2019-03-06T09:22:35.691Z,23.40
2019-03-06T09:25:19.341Z,32.30
2019-03-06T09:27:49.405Z,29.32
2019-03-06T09:30:22.179Z,26.77
2019-03-06T09:33:00.778Z,33.50
2019-03-06T09:35:30.874Z,28.77
2019-03-06T09:38:19.351Z,22.00
2019-03-06T09:40:55.395Z,22.98
2019-03-06T09:43:37.500Z,20.12
2019-03-06T09:46:07.563Z,21.35
2019-03-06T09:48:37.619Z,17.75
2019-03-06T09:51:13.734Z,18.27
2019-03-06T09:53:59.945Z,17.92
2019-03-06T09:56:42.143Z,18.15
2019-03-06T09:59:15.150Z,15.65
2019-03-06T10:02:06.284Z,15.23
2019-03-06T10:04:31.510Z,15.10
2019-03-06T10:07:07.575Z,17.57
2019-03-06T10:09:37.636Z,14.85
2019-03-06T10:12:13.697Z,15.60
2019-03-06T10:14:58.865Z,10.95
2019-03-06T10:17:30.195Z,12.53
2019-03-06T10:20:00.471Z,9.23
2019-03-06T10:22:28.954Z,9.63
2019-03-06T10:24:57.446Z,8.00
2019-03-06T10:27:25.935Z,10.32
2019-03-06T10:29:54.435Z,12.00
2019-03-06T10:32:22.919Z,8.83
2019-03-06T10:34:51.446Z,9.05
2019-03-06T10:37:19.930Z,8.93
2019-03-06T10:39:48.410Z,5.78
2019-03-06T10:42:16.939Z,5.25
2019-03-06T10:44:45.427Z,5.35
2019-03-06T10:47:13.910Z,5.55
2019-03-06T10:49:42.402Z,9.33
2019-03-06T10:52:10.891Z,4.95
2019-03-06T10:54:44.734Z,4.58
2019-03-06T10:57:11.821Z,5.40
2019-03-06T10:59:40.106Z,4.62
2019-03-06T11:02:08.603Z,4.28
2019-03-06T11:04:47.823Z,9.53
2019-03-06T11:07:16.316Z,4.28
2019-03-06T11:09:44.803Z,6.78
2019-03-06T11:12:13.295Z,4.45
2019-03-06T11:14:41.782Z,4.90
2019-03-06T11:17:10.283Z,3.85
2019-03-06T11:19:39.046Z,3.30
2019-03-06T11:22:07.535Z,3.87
2019-03-06T11:24:36.019Z,4.53
2019-03-06T11:27:04.506Z,5.85
2019-03-06T11:29:33.004Z,3.70
2019-03-06T11:32:01.489Z,3.27
2019-03-06T11:34:29.983Z,4.12
2019-03-06T11:36:58.477Z,4.65
2019-03-06T11:39:26.966Z,3.85
2019-03-06T11:41:55.457Z,5.67
2019-03-06T11:44:23.944Z,3.35
2019-03-06T11:46:53.095Z,3.87
2019-03-06T11:49:21.595Z,3.10
2019-03-06T11:51:50.083Z,3.12
2019-03-06T11:54:18.576Z,4.10
2019-03-06T11:56:47.104Z,2.72
2019-03-06T11:59:15.589Z,3.98
2019-03-06T12:01:47.994Z,2.60
2019-03-06T12:04:14.593Z,3.27
2019-03-06T12:06:43.087Z,3.80
2019-03-06T12:09:28.070Z,2.05
2019-03-06T12:11:56.547Z,2.90
2019-03-06T12:14:25.036Z,3.17
2019-03-06T12:16:53.513Z,2.10
2019-03-06T12:19:22.006Z,2.50
2019-03-06T12:21:50.572Z,3.22
2019-03-06T12:24:19.061Z,3.30
2019-03-06T12:26:47.561Z,2.45
2019-03-06T12:29:16.063Z,3.25
2019-03-06T12:31:44.587Z,2.90
2019-03-06T12:34:13.068Z,2.47
2019-03-06T12:36:41.725Z,3.30
2019-03-06T12:39:10.222Z,4.47
2019-03-06T12:41:38.696Z,2.45
2019-03-06T12:44:10.462Z,2.37
2019-03-06T12:46:37.395Z,3.00
2019-03-06T12:49:05.893Z,3.10
2019-03-06T12:51:34.379Z,48.30
2019-03-06T12:54:02.875Z,3.60
2019-03-06T12:56:31.349Z,2.60
2019-03-06T12:58:59.849Z,2.27
2019-03-06T13:01:28.329Z,2.72
2019-03-06T13:03:56.829Z,6.80
2019-03-06T13:06:25.424Z,9.10
2019-03-06T13:08:56.345Z,3.17
2019-03-06T13:11:24.177Z,3.50
2019-03-06T13:13:52.671Z,3.27
2019-03-06T13:16:21.158Z,3.17
2019-03-06T13:18:49.670Z,2.52
2019-03-06T13:21:18.402Z,2.60
2019-03-06T13:23:46.882Z,2.90
2019-03-06T13:26:15.379Z,2.65
2019-03-06T13:28:43.874Z,3.17
2019-03-06T13:31:12.363Z,2.55
2019-03-06T13:33:48.500Z,3.02
2019-03-06T13:36:16.995Z,3.70
2019-03-06T13:38:54.523Z,3.67
2019-03-06T13:41:15.698Z,3.62
2019-03-06T13:43:44.523Z,2.60
2019-03-06T13:46:13.151Z,2.98
2019-03-06T13:48:41.634Z,3.27
2019-03-06T13:51:10.115Z,2.65
2019-03-06T13:53:38.601Z,3.10
2019-03-06T13:56:07.100Z,5.90
2019-03-06T13:58:35.591Z,3.58
2019-03-06T14:01:04.776Z,3.45
2019-03-06T14:03:33.262Z,4.80
2019-03-06T14:06:02.029Z,4.67
2019-03-06T14:08:30.511Z,2.90
2019-03-06T14:10:59.006Z,4.00
2019-03-06T14:13:27.494Z,5.05
2019-03-06T14:15:55.986Z,4.20
2019-03-06T14:18:24.492Z,4.03
2019-03-06T14:20:53.257Z,3.37
2019-03-06T14:23:21.727Z,3.98
2019-03-06T14:25:50.251Z,4.80
2019-03-06T14:28:18.732Z,8.43
2019-03-06T14:30:47.429Z,4.10
2019-03-06T14:33:15.911Z,8.25
2019-03-06T14:35:44.714Z,4.55
2019-03-06T14:38:14.762Z,5.87
2019-03-06T14:40:43.455Z,5.25
2019-03-06T14:43:11.939Z,7.45
2019-03-06T14:45:40.439Z,8.48
2019-03-06T14:48:08.932Z,10.72
2019-03-06T14:50:37.429Z,10.30
2019-03-06T14:53:06.522Z,14.30
2019-03-06T14:55:35.601Z,6.67
2019-03-06T14:58:04.133Z,7.15
2019-03-06T15:00:32.613Z,9.78
2019-03-06T15:03:01.098Z,8.78
2019-03-06T15:05:29.587Z,9.10
2019-03-06T15:07:58.073Z,9.35
2019-03-06T15:10:26.566Z,10.72
2019-03-06T15:12:55.057Z,13.35
2019-03-06T15:15:23.564Z,15.83
2019-03-06T15:17:52.042Z,10.32
2019-03-06T15:20:22.796Z,11.73
2019-03-06T15:22:52.483Z,11.40
2019-03-06T15:25:23.534Z,9.90
2019-03-06T15:27:52.016Z,14.47
2019-03-06T15:30:20.532Z,24.82
2019-03-06T15:32:49.032Z,13.55
2019-03-06T15:35:17.526Z,24.77
2019-03-06T15:37:46.024Z,30.20
2019-03-06T15:40:24.869Z,28.38
2019-03-06T15:42:53.358Z,35.58
2019-03-06T15:45:23.351Z,37.10
2019-03-06T15:47:51.849Z,22.65
2019-03-06T15:50:20.349Z,17.62
2019-03-06T15:52:48.837Z,9.90
2019-03-06T15:55:20.452Z,11.60
2019-03-06T15:57:48.951Z,11.35
2019-03-06T16:00:21.507Z,16.05
2019-03-06T16:02:50.194Z,24.25
2019-03-06T16:05:19.491Z,28.62
2019-03-06T16:07:48.080Z,22.50
2019-03-06T16:10:16.576Z,46.35
2019-03-06T16:12:45.772Z,27.75
2019-03-06T16:15:14.370Z,33.05
2019-03-06T16:17:42.849Z,18.42
2019-03-06T16:20:17.456Z,11.08
2019-03-06T16:22:46.055Z,11.97
2019-03-06T16:25:14.547Z,12.53
2019-03-06T16:27:43.029Z,8.50
2019-03-06T16:30:19.381Z,14.90
2019-03-06T16:32:47.862Z,15.70
2019-03-06T16:35:16.400Z,13.18
2019-03-06T16:37:44.944Z,44.45
2019-03-06T16:40:18.445Z,48.35
2019-03-06T16:42:47.718Z,44.80
2019-03-06T16:45:17.903Z,33.83
2019-03-06T16:47:46.405Z,32.17
2019-03-06T16:50:19.590Z,27.37
2019-03-06T16:52:48.086Z,33.88
2019-03-06T16:55:18.075Z,28.92
2019-03-06T16:57:46.728Z,28.25
2019-03-06T17:00:22.923Z,26.07
2019-03-06T17:02:51.413Z,20.75
2019-03-06T17:05:20.400Z,16.77
2019-03-06T17:07:49.691Z,14.75
2019-03-06T17:10:19.586Z,14.15
2019-03-06T17:12:48.082Z,12.18
2019-03-06T17:15:17.277Z,12.28
2019-03-06T17:17:45.761Z,8.43
2019-03-06T17:20:19.836Z,7.03
2019-03-06T17:22:48.501Z,5.83
2019-03-06T17:25:16.988Z,9.23
2019-03-06T17:27:45.570Z,9.65
2019-03-06T17:30:27.428Z,7.17
2019-03-06T17:33:04.089Z,7.53
2019-03-06T17:35:33.186Z,10.60
2019-03-06T17:38:01.677Z,7.20
2019-03-06T17:40:30.230Z,7.00
2019-03-06T17:42:58.712Z,8.08
2019-03-06T17:45:27.299Z,10.15
2019-03-06T17:47:55.785Z,7.62
2019-03-06T17:50:24.277Z,6.58
2019-03-06T17:52:52.862Z,5.90
2019-03-06T17:55:21.349Z,6.83
2019-03-06T17:57:49.830Z,7.58
2019-03-06T18:00:25.845Z,9.30
2019-03-06T18:02:54.705Z,6.50
2019-03-06T18:05:23.205Z,6.03
2019-03-06T18:07:51.690Z,6.00
2019-03-06T18:10:20.487Z,8.55
2019-03-06T18:12:48.976Z,9.95
2019-03-06T18:15:19.025Z,7.90
2019-03-06T18:17:47.691Z,7.30
2019-03-06T18:20:17.286Z,6.83
2019-03-06T18:22:45.777Z,5.95
2019-03-06T18:25:18.931Z,7.90
2019-03-06T18:27:47.434Z,8.73
2019-03-06T18:30:19.603Z,15.05
2019-03-06T18:32:48.099Z,11.60
2019-03-06T18:35:17.495Z,9.80
2019-03-06T18:37:45.998Z,11.00
2019-03-06T18:40:21.791Z,11.57
2019-03-06T18:42:50.272Z,14.78
2019-03-06T18:45:19.647Z,13.30
2019-03-06T18:47:48.142Z,11.83
2019-03-06T18:50:20.737Z,10.13
2019-03-06T18:52:49.282Z,8.78
2019-03-06T18:55:18.469Z,8.58
2019-03-06T18:57:46.977Z,9.43
2019-03-06T19:00:18.999Z,11.00
2019-03-06T19:02:47.522Z,12.63
2019-03-06T19:05:16.314Z,10.88
2019-03-06T19:07:44.808Z,8.70
2019-03-06T19:10:18.141Z,7.30
2019-03-06T19:12:46.689Z,10.13
2019-03-06T19:15:26.473Z,12.23
2019-03-06T19:17:54.981Z,12.75
2019-03-06T19:20:23.463Z,14.00
2019-03-06T19:22:52.456Z,11.88
2019-03-06T19:25:20.980Z,12.00
2019-03-06T19:27:49.740Z,12.78
2019-03-06T19:30:22.397Z,9.63
2019-03-06T19:32:50.888Z,13.83
2019-03-06T19:35:24.642Z,9.88
2019-03-06T19:37:53.135Z,9.93
2019-03-06T19:40:21.619Z,10.43
2019-03-06T19:42:50.117Z,12.28
2019-03-06T19:45:25.247Z,15.08
2019-03-06T19:47:53.749Z,10.00
2019-03-06T19:50:25.650Z,9.48
2019-03-06T19:52:54.592Z,9.25
2019-03-06T19:55:23.441Z,9.13
2019-03-06T19:57:59.460Z,9.35
2019-03-06T20:00:29.641Z,10.75
2019-03-06T20:02:58.429Z,33.58
2019-03-06T20:05:34.573Z,25.20
2019-03-06T20:08:03.132Z,21.35
2019-03-06T20:10:31.634Z,19.37
2019-03-06T20:13:00.127Z,22.90
2019-03-06T20:15:28.614Z,22.30
2019-03-06T20:17:57.115Z,17.92
2019-03-06T20:20:25.598Z,15.13
2019-03-06T20:22:54.124Z,19.15
2019-03-06T20:25:22.806Z,21.15
2019-03-06T20:27:53.253Z,22.07
2019-03-06T20:30:22.919Z,25.43
2019-03-06T20:32:51.411Z,35.52
2019-03-06T20:35:23.843Z,36.98
2019-03-06T20:37:52.334Z,29.12
2019-03-06T20:40:21.017Z,20.17
2019-03-06T20:42:49.516Z,16.85
2019-03-06T20:45:18.808Z,14.40
2019-03-06T20:47:47.303Z,11.97
2019-03-06T20:50:19.805Z,11.22
2019-03-06T20:52:50.180Z,8.35
2019-03-06T20:55:18.511Z,7.92
2019-03-06T20:57:46.999Z,6.72
2019-03-06T21:00:23.507Z,5.53
2019-03-06T21:02:51.999Z,5.05
2019-03-06T21:05:20.486Z,5.12
2019-03-06T21:07:49.035Z,8.50
2019-03-06T21:10:18.417Z,9.80
2019-03-06T21:12:46.907Z,22.80
2019-03-06T21:15:17.194Z,12.65
2019-03-06T21:17:45.679Z,6.97
2019-03-06T21:20:22.326Z,25.45
2019-03-06T21:22:50.815Z,26.87
2019-03-06T21:25:20.109Z,25.60
2019-03-06T21:27:48.876Z,21.23
2019-03-06T21:30:31.695Z,16.27
2019-03-06T21:33:00.193Z,15.08
2019-03-06T21:35:28.699Z,14.38
2019-03-06T21:37:57.187Z,17.52
2019-03-06T21:40:25.691Z,14.83
2019-03-06T21:42:54.225Z,10.55
2019-03-06T21:45:22.719Z,10.75
2019-03-06T21:47:51.236Z,12.58
2019-03-06T21:50:20.045Z,13.55
2019-03-06T21:52:48.528Z,12.00
2019-03-06T21:55:17.025Z,12.33
2019-03-06T21:57:45.896Z,13.58
2019-03-06T22:00:17.606Z,18.17
2019-03-06T22:02:46.117Z,16.67
2019-03-06T22:05:14.599Z,16.45
2019-03-06T22:07:43.089Z,19.17
2019-03-06T22:10:12.788Z,20.88
2019-03-06T22:12:41.554Z,22.90
2019-03-06T22:15:15.863Z,26.10
2019-03-06T22:17:44.350Z,25.75
2019-03-06T22:20:14.050Z,25.02
2019-03-06T22:22:42.540Z,19.30
2019-03-06T22:25:17.898Z,16.95
2019-03-06T22:27:46.378Z,16.25
2019-03-06T22:30:19.333Z,31.93
2019-03-06T22:32:47.822Z,29.25
2019-03-06T22:35:16.335Z,21.77
2019-03-06T22:37:44.832Z,23.42
2019-03-06T22:40:20.230Z,22.62
2019-03-06T22:42:48.730Z,26.50
2019-03-06T22:45:18.416Z,23.35
2019-03-06T22:47:46.908Z,29.75
2019-03-06T22:50:16.167Z,26.48
2019-03-06T22:52:44.650Z,26.33
2019-03-06T22:55:17.552Z,24.70
2019-03-06T22:57:46.090Z,40.78
2019-03-06T23:00:29.516Z,32.20
2019-03-06T23:02:58.206Z,31.42
2019-03-06T23:05:32.064Z,19.40
2019-03-06T23:08:00.581Z,19.12
2019-03-06T23:10:29.076Z,19.48
2019-03-06T23:12:58.621Z,20.88
2019-03-06T23:15:27.299Z,25.15
2019-03-06T23:17:57.665Z,22.30
2019-03-06T23:20:26.176Z,20.15
2019-03-06T23:22:54.655Z,25.77
2019-03-06T23:25:23.152Z,20.30
2019-03-06T23:27:51.648Z,17.70
2019-03-06T23:30:20.142Z,74.55
2019-03-06T23:32:49.017Z,29.63
2019-03-06T23:35:17.496Z,40.28
2019-03-06T23:37:46.026Z,53.38
2019-03-06T23:40:14.511Z,45.83
2019-03-06T23:42:43.010Z,39.78
2019-03-06T23:45:12.510Z,40.50
2019-03-06T23:47:41.293Z,24.12
2019-03-06T23:50:11.197Z,17.02
2019-03-06T23:52:59.491Z,26.42
2019-03-06T23:55:29.551Z,23.18
2019-03-06T23:57:58.266Z,28.42
